sensor_id;sensor_type;location;lat;lon;timestamp;temperature;humidity
1359;DHT22;673;48.098;14.422;2022-09-27T00:02:22;11.60;99.90
1359;DHT22;673;48.098;14.422;2022-09-27T00:04:50;11.60;99.90
1359;DHT22;673;48.098;14.422;2022-09-27T00:07:17;11.70;99.90
1359;DHT22;673;48.098;14.422;2022-09-27T00:09:44;11.70;99.90
1359;DHT22;673;48.098;14.422;2022-09-27T00:12:11;11.70;99.90
1359;DHT22;673;48.098;14.422;2022-09-27T00:14:38;11.70;99.90
1359;DHT22;673;48.098;14.422;2022-09-27T00:17:08;11.60;99.90
1359;DHT22;673;48.098;14.422;2022-09-27T00:19:35;11.70;99.90
1359;DHT22;673;48.098;14.422;2022-09-27T00:22:02;11.60;99.90
1359;DHT22;673;48.098;14.422;2022-09-27T00:24:29;11.60;99.90
1359;DHT22;673;48.098;14.422;2022-09-27T00:26:56;11.60;99.90
1359;DHT22;673;48.098;14.422;2022-09-27T00:29:23;11.50;99.90
1359;DHT22;673;48.098;14.422;2022-09-27T00:31:51;11.50;99.90
1359;DHT22;673;48.098;14.422;2022-09-27T00:34:22;11.40;99.90
1359;DHT22;673;48.098;14.422;2022-09-27T00:36:49;11.40;99.90
1359;DHT22;673;48.098;14.422;2022-09-27T00:39:18;11.40;99.90
1359;DHT22;673;48.098;14.422;2022-09-27T00:41:45;11.30;99.90
1359;DHT22;673;48.098;14.422;2022-09-27T00:47:25;11.30;99.90
1359;DHT22;673;48.098;14.422;2022-09-27T00:49:58;11.20;99.90
1359;DHT22;673;48.098;14.422;2022-09-27T00:52:32;11.30;99.90
1359;DHT22;673;48.098;14.422;2022-09-27T00:55:04;11.30;99.90
1359;DHT22;673;48.098;14.422;2022-09-27T00:57:32;11.30;99.90
1359;DHT22;673;48.098;14.422;2022-09-27T01:00:02;11.40;99.90
1359;DHT22;673;48.098;14.422;2022-09-27T01:02:31;11.30;99.90
1359;DHT22;673;48.098;14.422;2022-09-27T01:05:03;11.30;99.90
1359;DHT22;673;48.098;14.422;2022-09-27T01:07:31;11.30;99.90
1359;DHT22;673;48.098;14.422;2022-09-27T01:09:58;11.30;99.90
1359;DHT22;673;48.098;14.422;2022-09-27T01:12:32;11.40;99.90
1359;DHT22;673;48.098;14.422;2022-09-27T01:15:11;11.50;99.90
1359;DHT22;673;48.098;14.422;2022-09-27T01:17:46;11.40;99.90
1359;DHT22;673;48.098;14.422;2022-09-27T01:20:49;11.50;99.90
1359;DHT22;673;48.098;14.422;2022-09-27T01:23:47;11.40;99.90
1359;DHT22;673;48.098;14.422;2022-09-27T01:26:29;11.30;99.90
1359;DHT22;673;48.098;14.422;2022-09-27T01:29:04;11.30;99.90
1359;DHT22;673;48.098;14.422;2022-09-27T01:31:39;11.50;99.90
1359;DHT22;673;48.098;14.422;2022-09-27T01:34:13;11.50;99.90
1359;DHT22;673;48.098;14.422;2022-09-27T01:36:52;11.40;99.90
1359;DHT22;673;48.098;14.422;2022-09-27T01:39:32;11.40;99.90
1359;DHT22;673;48.098;14.422;2022-09-27T01:42:05;11.40;99.90
1359;DHT22;673;48.098;14.422;2022-09-27T01:44:37;11.30;99.90
1359;DHT22;673;48.098;14.422;2022-09-27T01:47:12;11.30;99.90
1359;DHT22;673;48.098;14.422;2022-09-27T01:49:46;11.30;99.90
1359;DHT22;673;48.098;14.422;2022-09-27T01:52:17;11.20;99.90
1359;DHT22;673;48.098;14.422;2022-09-27T01:54:49;11.20;99.90
1359;DHT22;673;48.098;14.422;2022-09-27T01:57:21;11.20;99.90
1359;DHT22;673;48.098;14.422;2022-09-27T01:59:51;11.10;99.90
1359;DHT22;673;48.098;14.422;2022-09-27T02:02:22;11.10;99.90
1359;DHT22;673;48.098;14.422;2022-09-27T02:04:51;11.20;99.90
1359;DHT22;673;48.098;14.422;2022-09-27T02:07:25;11.10;99.90
1359;DHT22;673;48.098;14.422;2022-09-27T02:09:55;11.10;99.90
1359;DHT22;673;48.098;14.422;2022-09-27T02:12:27;11.10;99.90
1359;DHT22;673;48.098;14.422;2022-09-27T02:14:59;11.10;99.90
1359;DHT22;673;48.098;14.422;2022-09-27T02:17:38;11.20;99.90
1359;DHT22;673;48.098;14.422;2022-09-27T02:20:12;11.10;99.90
1359;DHT22;673;48.098;14.422;2022-09-27T02:22:44;11.10;99.90
1359;DHT22;673;48.098;14.422;2022-09-27T02:25:19;11.10;99.90
1359;DHT22;673;48.098;14.422;2022-09-27T02:27:54;11.00;99.90
1359;DHT22;673;48.098;14.422;2022-09-27T02:30:23;11.10;99.90
1359;DHT22;673;48.098;14.422;2022-09-27T02:32:52;11.00;99.90
1359;DHT22;673;48.098;14.422;2022-09-27T02:35:23;11.10;99.90
1359;DHT22;673;48.098;14.422;2022-09-27T02:37:51;11.10;99.90
1359;DHT22;673;48.098;14.422;2022-09-27T02:40:19;11.10;99.90
1359;DHT22;673;48.098;14.422;2022-09-27T02:42:46;11.10;99.90
1359;DHT22;673;48.098;14.422;2022-09-27T02:45:15;11.10;99.90
1359;DHT22;673;48.098;14.422;2022-09-27T02:47:58;11.10;99.90
1359;DHT22;673;48.098;14.422;2022-09-27T02:50:43;11.10;99.90
1359;DHT22;673;48.098;14.422;2022-09-27T02:53:18;11.10;99.90
1359;DHT22;673;48.098;14.422;2022-09-27T02:55:52;11.00;99.90
1359;DHT22;673;48.098;14.422;2022-09-27T02:58:32;11.00;99.90
1359;DHT22;673;48.098;14.422;2022-09-27T03:01:10;11.00;99.90
1359;DHT22;673;48.098;14.422;2022-09-27T03:03:45;11.00;99.90
1359;DHT22;673;48.098;14.422;2022-09-27T03:06:17;11.00;99.90
1359;DHT22;673;48.098;14.422;2022-09-27T03:08:46;11.00;99.90
1359;DHT22;673;48.098;14.422;2022-09-27T03:11:13;10.90;99.90
1359;DHT22;673;48.098;14.422;2022-09-27T03:13:41;10.90;99.90
1359;DHT22;673;48.098;14.422;2022-09-27T03:16:08;10.90;99.90
1359;DHT22;673;48.098;14.422;2022-09-27T03:18:35;11.00;99.90
1359;DHT22;673;48.098;14.422;2022-09-27T03:21:03;11.00;99.90
1359;DHT22;673;48.098;14.422;2022-09-27T03:23:30;11.00;99.90
1359;DHT22;673;48.098;14.422;2022-09-27T03:25:58;10.90;99.90
1359;DHT22;673;48.098;14.422;2022-09-27T03:28:25;10.90;99.90
1359;DHT22;673;48.098;14.422;2022-09-27T03:30:54;10.80;99.90
1359;DHT22;673;48.098;14.422;2022-09-27T03:33:21;10.80;99.90
1359;DHT22;673;48.098;14.422;2022-09-27T03:35:48;10.80;99.90
1359;DHT22;673;48.098;14.422;2022-09-27T03:38:17;10.80;99.90
1359;DHT22;673;48.098;14.422;2022-09-27T03:40:44;10.80;99.90
1359;DHT22;673;48.098;14.422;2022-09-27T03:43:11;10.80;99.90
1359;DHT22;673;48.098;14.422;2022-09-27T03:45:38;10.80;99.90
1359;DHT22;673;48.098;14.422;2022-09-27T03:48:05;10.80;99.90
1359;DHT22;673;48.098;14.422;2022-09-27T03:50:33;10.80;99.90
1359;DHT22;673;48.098;14.422;2022-09-27T03:53:00;10.80;99.90
1359;DHT22;673;48.098;14.422;2022-09-27T03:55:28;10.70;99.90
1359;DHT22;673;48.098;14.422;2022-09-27T03:57:55;10.80;99.90
1359;DHT22;673;48.098;14.422;2022-09-27T04:00:22;10.80;99.90
1359;DHT22;673;48.098;14.422;2022-09-27T04:02:50;10.80;99.90
1359;DHT22;673;48.098;14.422;2022-09-27T04:05:17;10.80;99.90
1359;DHT22;673;48.098;14.422;2022-09-27T04:07:45;10.80;99.90
1359;DHT22;673;48.098;14.422;2022-09-27T04:10:14;10.80;99.90
1359;DHT22;673;48.098;14.422;2022-09-27T04:12:43;10.80;99.90
1359;DHT22;673;48.098;14.422;2022-09-27T04:15:10;10.80;99.90
1359;DHT22;673;48.098;14.422;2022-09-27T04:17:40;10.80;99.90
1359;DHT22;673;48.098;14.422;2022-09-27T04:20:07;10.70;99.90
1359;DHT22;673;48.098;14.422;2022-09-27T04:22:38;10.80;99.90
1359;DHT22;673;48.098;14.422;2022-09-27T04:25:06;10.70;99.90
1359;DHT22;673;48.098;14.422;2022-09-27T04:27:33;10.70;99.90
1359;DHT22;673;48.098;14.422;2022-09-27T04:30:03;10.70;99.90
1359;DHT22;673;48.098;14.422;2022-09-27T04:32:30;10.70;99.90
1359;DHT22;673;48.098;14.422;2022-09-27T04:34:57;10.80;99.90
1359;DHT22;673;48.098;14.422;2022-09-27T04:37:42;10.70;99.90
1359;DHT22;673;48.098;14.422;2022-09-27T04:40:10;10.70;99.90
1359;DHT22;673;48.098;14.422;2022-09-27T04:42:37;10.70;99.90
1359;DHT22;673;48.098;14.422;2022-09-27T04:45:06;10.80;99.90
1359;DHT22;673;48.098;14.422;2022-09-27T04:47:33;10.80;99.90
1359;DHT22;673;48.098;14.422;2022-09-27T04:50:01;10.70;99.90
1359;DHT22;673;48.098;14.422;2022-09-27T04:52:28;10.70;99.90
1359;DHT22;673;48.098;14.422;2022-09-27T04:54:56;10.70;99.90
1359;DHT22;673;48.098;14.422;2022-09-27T04:57:23;10.60;99.90
1359;DHT22;673;48.098;14.422;2022-09-27T04:59:50;10.60;99.90
1359;DHT22;673;48.098;14.422;2022-09-27T05:02:19;10.60;99.90
1359;DHT22;673;48.098;14.422;2022-09-27T05:04:46;10.60;99.90
1359;DHT22;673;48.098;14.422;2022-09-27T05:07:13;10.60;99.90
1359;DHT22;673;48.098;14.422;2022-09-27T05:09:40;10.60;99.90
1359;DHT22;673;48.098;14.422;2022-09-27T05:12:07;10.60;99.90
1359;DHT22;673;48.098;14.422;2022-09-27T05:14:34;10.60;99.90
1359;DHT22;673;48.098;14.422;2022-09-27T05:17:02;10.70;99.90
1359;DHT22;673;48.098;14.422;2022-09-27T05:19:30;10.70;99.90
1359;DHT22;673;48.098;14.422;2022-09-27T05:21:57;10.70;99.90
1359;DHT22;673;48.098;14.422;2022-09-27T05:24:24;10.70;99.90
1359;DHT22;673;48.098;14.422;2022-09-27T05:26:52;10.70;99.90
1359;DHT22;673;48.098;14.422;2022-09-27T05:29:19;10.70;99.90
1359;DHT22;673;48.098;14.422;2022-09-27T05:31:46;10.70;99.90
1359;DHT22;673;48.098;14.422;2022-09-27T05:34:14;10.70;99.90
1359;DHT22;673;48.098;14.422;2022-09-27T05:36:46;10.60;99.90
1359;DHT22;673;48.098;14.422;2022-09-27T05:39:13;10.60;99.90
1359;DHT22;673;48.098;14.422;2022-09-27T05:41:41;10.60;99.90
1359;DHT22;673;48.098;14.422;2022-09-27T05:44:08;10.60;99.90
1359;DHT22;673;48.098;14.422;2022-09-27T05:46:35;10.60;99.90
1359;DHT22;673;48.098;14.422;2022-09-27T05:49:04;10.60;99.90
1359;DHT22;673;48.098;14.422;2022-09-27T05:51:31;10.50;99.90
1359;DHT22;673;48.098;14.422;2022-09-27T05:53:59;10.60;99.90
1359;DHT22;673;48.098;14.422;2022-09-27T05:56:27;10.60;99.90
1359;DHT22;673;48.098;14.422;2022-09-27T05:58:54;10.60;99.90
1359;DHT22;673;48.098;14.422;2022-09-27T06:01:21;10.60;99.90
1359;DHT22;673;48.098;14.422;2022-09-27T06:03:51;10.60;99.90
1359;DHT22;673;48.098;14.422;2022-09-27T06:06:18;10.60;99.90
1359;DHT22;673;48.098;14.422;2022-09-27T06:08:45;10.50;99.90
1359;DHT22;673;48.098;14.422;2022-09-27T06:11:14;10.50;99.90
1359;DHT22;673;48.098;14.422;2022-09-27T06:13:41;10.60;99.90
1359;DHT22;673;48.098;14.422;2022-09-27T06:16:09;10.60;99.90
1359;DHT22;673;48.098;14.422;2022-09-27T06:18:37;10.60;99.90
1359;DHT22;673;48.098;14.422;2022-09-27T06:21:05;10.70;99.90
1359;DHT22;673;48.098;14.422;2022-09-27T06:23:32;10.60;99.90
1359;DHT22;673;48.098;14.422;2022-09-27T06:26:00;10.60;99.90
1359;DHT22;673;48.098;14.422;2022-09-27T06:28:30;10.70;99.90
1359;DHT22;673;48.098;14.422;2022-09-27T06:30:59;10.70;99.90
1359;DHT22;673;48.098;14.422;2022-09-27T06:33:27;10.70;99.90
1359;DHT22;673;48.098;14.422;2022-09-27T06:35:54;10.70;99.90
1359;DHT22;673;48.098;14.422;2022-09-27T06:38:22;10.80;99.90
1359;DHT22;673;48.098;14.422;2022-09-27T06:40:49;10.70;99.90
1359;DHT22;673;48.098;14.422;2022-09-27T06:43:17;10.80;99.90
1359;DHT22;673;48.098;14.422;2022-09-27T06:45:47;10.80;99.90
1359;DHT22;673;48.098;14.422;2022-09-27T06:48:15;10.80;99.90
1359;DHT22;673;48.098;14.422;2022-09-27T06:50:43;10.80;99.90
1359;DHT22;673;48.098;14.422;2022-09-27T06:53:12;10.80;99.90
1359;DHT22;673;48.098;14.422;2022-09-27T06:55:39;10.80;99.90
1359;DHT22;673;48.098;14.422;2022-09-27T06:58:09;10.60;99.90
1359;DHT22;673;48.098;14.422;2022-09-27T07:00:55;10.50;99.90
1359;DHT22;673;48.098;14.422;2022-09-27T07:03:23;10.50;99.90
1359;DHT22;673;48.098;14.422;2022-09-27T07:05:57;10.50;99.90
1359;DHT22;673;48.098;14.422;2022-09-27T07:08:25;10.50;99.90
1359;DHT22;673;48.098;14.422;2022-09-27T07:10:53;10.50;99.90
1359;DHT22;673;48.098;14.422;2022-09-27T07:13:21;10.50;99.90
1359;DHT22;673;48.098;14.422;2022-09-27T07:15:48;10.50;99.90
1359;DHT22;673;48.098;14.422;2022-09-27T07:18:17;10.60;99.90
1359;DHT22;673;48.098;14.422;2022-09-27T07:20:45;10.60;99.90
1359;DHT22;673;48.098;14.422;2022-09-27T07:23:13;10.80;99.90
1359;DHT22;673;48.098;14.422;2022-09-27T07:25:40;10.90;99.90
1359;DHT22;673;48.098;14.422;2022-09-27T07:28:18;10.80;99.90
1359;DHT22;673;48.098;14.422;2022-09-27T07:30:45;10.90;99.90
1359;DHT22;673;48.098;14.422;2022-09-27T07:33:13;11.00;99.90
1359;DHT22;673;48.098;14.422;2022-09-27T07:35:42;10.90;99.90
1359;DHT22;673;48.098;14.422;2022-09-27T07:38:10;10.80;99.90
1359;DHT22;673;48.098;14.422;2022-09-27T07:40:39;10.80;99.90
1359;DHT22;673;48.098;14.422;2022-09-27T07:43:06;10.80;99.90
1359;DHT22;673;48.098;14.422;2022-09-27T07:45:34;10.70;99.90
1359;DHT22;673;48.098;14.422;2022-09-27T07:48:03;10.70;99.90
1359;DHT22;673;48.098;14.422;2022-09-27T07:50:31;10.50;99.90
1359;DHT22;673;48.098;14.422;2022-09-27T07:52:59;10.50;99.90
1359;DHT22;673;48.098;14.422;2022-09-27T07:55:26;10.50;99.90
1359;DHT22;673;48.098;14.422;2022-09-27T07:58:01;10.60;99.90
1359;DHT22;673;48.098;14.422;2022-09-27T08:00:28;10.70;99.90
1359;DHT22;673;48.098;14.422;2022-09-27T08:02:55;10.90;99.90
1359;DHT22;673;48.098;14.422;2022-09-27T08:05:22;11.00;99.90
1359;DHT22;673;48.098;14.422;2022-09-27T08:07:53;11.00;99.90
1359;DHT22;673;48.098;14.422;2022-09-27T08:10:22;11.10;99.90
1359;DHT22;673;48.098;14.422;2022-09-27T08:12:52;11.10;99.90
1359;DHT22;673;48.098;14.422;2022-09-27T08:15:19;11.20;99.90
1359;DHT22;673;48.098;14.422;2022-09-27T08:17:46;11.20;99.90
1359;DHT22;673;48.098;14.422;2022-09-27T08:20:13;11.20;99.90
1359;DHT22;673;48.098;14.422;2022-09-27T08:22:40;11.30;99.90
1359;DHT22;673;48.098;14.422;2022-09-27T08:25:08;11.20;99.90
1359;DHT22;673;48.098;14.422;2022-09-27T08:27:37;11.10;99.90
1359;DHT22;673;48.098;14.422;2022-09-27T08:30:05;11.30;99.90
1359;DHT22;673;48.098;14.422;2022-09-27T08:32:32;11.20;99.90
1359;DHT22;673;48.098;14.422;2022-09-27T08:34:59;11.30;99.90
1359;DHT22;673;48.098;14.422;2022-09-27T08:37:26;11.50;99.90
1359;DHT22;673;48.098;14.422;2022-09-27T08:39:53;11.70;99.90
1359;DHT22;673;48.098;14.422;2022-09-27T08:42:30;11.60;99.90
1359;DHT22;673;48.098;14.422;2022-09-27T08:45:05;11.90;99.90
1359;DHT22;673;48.098;14.422;2022-09-27T08:47:36;11.80;99.90
1359;DHT22;673;48.098;14.422;2022-09-27T08:50:13;12.10;99.90
1359;DHT22;673;48.098;14.422;2022-09-27T08:52:47;12.30;99.90
1359;DHT22;673;48.098;14.422;2022-09-27T08:55:23;12.40;99.90
1359;DHT22;673;48.098;14.422;2022-09-27T08:57:54;12.50;99.90
1359;DHT22;673;48.098;14.422;2022-09-27T09:00:24;12.40;99.90
1359;DHT22;673;48.098;14.422;2022-09-27T09:02:51;12.40;99.90
1359;DHT22;673;48.098;14.422;2022-09-27T09:05:26;12.50;99.90
1359;DHT22;673;48.098;14.422;2022-09-27T09:08:03;12.50;99.90
1359;DHT22;673;48.098;14.422;2022-09-27T09:10:42;12.30;99.90
1359;DHT22;673;48.098;14.422;2022-09-27T09:13:42;12.40;99.90
1359;DHT22;673;48.098;14.422;2022-09-27T09:16:23;12.40;99.90
1359;DHT22;673;48.098;14.422;2022-09-27T09:19:03;12.50;99.90
1359;DHT22;673;48.098;14.422;2022-09-27T09:21:40;12.40;99.90
1359;DHT22;673;48.098;14.422;2022-09-27T09:27:02;12.60;99.90
1359;DHT22;673;48.098;14.422;2022-09-27T09:29:46;12.60;99.90
1359;DHT22;673;48.098;14.422;2022-09-27T09:32:26;12.90;99.90
1359;DHT22;673;48.098;14.422;2022-09-27T09:34:58;12.80;99.90
1359;DHT22;673;48.098;14.422;2022-09-27T09:37:34;12.70;99.90
1359;DHT22;673;48.098;14.422;2022-09-27T09:40:06;12.70;99.90
1359;DHT22;673;48.098;14.422;2022-09-27T09:42:44;12.90;99.90
1359;DHT22;673;48.098;14.422;2022-09-27T09:45:18;13.00;99.90
1359;DHT22;673;48.098;14.422;2022-09-27T09:47:51;12.90;99.90
1359;DHT22;673;48.098;14.422;2022-09-27T09:50:23;12.90;99.90
1359;DHT22;673;48.098;14.422;2022-09-27T09:52:56;13.10;99.90
1359;DHT22;673;48.098;14.422;2022-09-27T09:55:27;13.00;99.90
1359;DHT22;673;48.098;14.422;2022-09-27T09:58:02;13.10;99.90
1359;DHT22;673;48.098;14.422;2022-09-27T10:00:31;13.30;99.90
1359;DHT22;673;48.098;14.422;2022-09-27T10:02:59;13.30;99.90
1359;DHT22;673;48.098;14.422;2022-09-27T10:05:27;13.50;99.90
1359;DHT22;673;48.098;14.422;2022-09-27T10:07:57;13.30;99.90
1359;DHT22;673;48.098;14.422;2022-09-27T10:10:25;13.20;99.90
1359;DHT22;673;48.098;14.422;2022-09-27T10:12:53;13.00;99.90
1359;DHT22;673;48.098;14.422;2022-09-27T10:15:22;12.70;99.90
1359;DHT22;673;48.098;14.422;2022-09-27T10:17:51;12.90;99.90
1359;DHT22;673;48.098;14.422;2022-09-27T10:20:30;12.90;99.90
1359;DHT22;673;48.098;14.422;2022-09-27T10:23:03;13.00;99.90
1359;DHT22;673;48.098;14.422;2022-09-27T10:25:49;13.00;99.90
1359;DHT22;673;48.098;14.422;2022-09-27T10:28:35;13.00;99.90
1359;DHT22;673;48.098;14.422;2022-09-27T10:31:04;13.10;99.90
1359;DHT22;673;48.098;14.422;2022-09-27T10:33:31;13.30;99.90
1359;DHT22;673;48.098;14.422;2022-09-27T10:36:01;13.50;99.90
1359;DHT22;673;48.098;14.422;2022-09-27T10:38:31;13.70;99.90
1359;DHT22;673;48.098;14.422;2022-09-27T10:41:16;14.10;99.90
1359;DHT22;673;48.098;14.422;2022-09-27T10:43:43;14.20;99.90
1359;DHT22;673;48.098;14.422;2022-09-27T10:46:17;14.10;99.90
1359;DHT22;673;48.098;14.422;2022-09-27T10:48:47;14.00;99.90
1359;DHT22;673;48.098;14.422;2022-09-27T10:51:25;13.90;99.90
1359;DHT22;673;48.098;14.422;2022-09-27T10:53:55;13.90;99.90
1359;DHT22;673;48.098;14.422;2022-09-27T10:56:27;13.90;99.90
1359;DHT22;673;48.098;14.422;2022-09-27T10:58:55;14.00;99.90
1359;DHT22;673;48.098;14.422;2022-09-27T11:01:24;14.00;99.90
1359;DHT22;673;48.098;14.422;2022-09-27T11:03:53;14.00;99.90
1359;DHT22;673;48.098;14.422;2022-09-27T11:06:29;13.80;99.90
1359;DHT22;673;48.098;14.422;2022-09-27T11:09:13;13.90;99.90
1359;DHT22;673;48.098;14.422;2022-09-27T11:11:43;14.00;99.90
1359;DHT22;673;48.098;14.422;2022-09-27T11:14:20;14.20;99.90
1359;DHT22;673;48.098;14.422;2022-09-27T11:17:01;14.10;99.90
1359;DHT22;673;48.098;14.422;2022-09-27T11:25:29;13.60;99.90
1359;DHT22;673;48.098;14.422;2022-09-27T11:28:07;12.80;99.90
1359;DHT22;673;48.098;14.422;2022-09-27T11:30:48;11.00;99.90
1359;DHT22;673;48.098;14.422;2022-09-27T11:33:40;10.50;99.90
1359;DHT22;673;48.098;14.422;2022-09-27T11:36:19;10.40;99.90
1359;DHT22;673;48.098;14.422;2022-09-27T11:38:56;10.20;99.90
1359;DHT22;673;48.098;14.422;2022-09-27T11:41:47;10.30;99.90
1359;DHT22;673;48.098;14.422;2022-09-27T11:44:39;10.50;99.90
1359;DHT22;673;48.098;14.422;2022-09-27T11:47:16;10.60;99.90
1359;DHT22;673;48.098;14.422;2022-09-27T11:52:55;11.00;99.90
1359;DHT22;673;48.098;14.422;2022-09-27T11:55:36;11.30;99.90
1359;DHT22;673;48.098;14.422;2022-09-27T11:58:15;11.80;99.90
1359;DHT22;673;48.098;14.422;2022-09-27T12:01:01;12.10;99.90
1359;DHT22;673;48.098;14.422;2022-09-27T12:03:51;12.40;99.90
1359;DHT22;673;48.098;14.422;2022-09-27T12:06:26;12.70;99.90
1359;DHT22;673;48.098;14.422;2022-09-27T12:09:02;12.70;99.90
1359;DHT22;673;48.098;14.422;2022-09-27T12:11:37;12.50;99.90
1359;DHT22;673;48.098;14.422;2022-09-27T12:14:13;12.20;99.90
1359;DHT22;673;48.098;14.422;2022-09-27T12:16:41;12.20;99.90
1359;DHT22;673;48.098;14.422;2022-09-27T12:19:15;12.30;99.90
1359;DHT22;673;48.098;14.422;2022-09-27T12:21:44;12.30;99.90
1359;DHT22;673;48.098;14.422;2022-09-27T12:24:18;12.20;99.90
1359;DHT22;673;48.098;14.422;2022-09-27T12:26:50;12.30;99.90
1359;DHT22;673;48.098;14.422;2022-09-27T12:29:24;12.30;99.90
1359;DHT22;673;48.098;14.422;2022-09-27T12:32:07;12.30;99.90
1359;DHT22;673;48.098;14.422;2022-09-27T12:34:43;12.20;99.90
1359;DHT22;673;48.098;14.422;2022-09-27T12:37:15;12.20;99.90
1359;DHT22;673;48.098;14.422;2022-09-27T12:39:49;12.30;99.90
1359;DHT22;673;48.098;14.422;2022-09-27T12:42:23;12.30;99.90
1359;DHT22;673;48.098;14.422;2022-09-27T12:44:51;12.40;99.90
1359;DHT22;673;48.098;14.422;2022-09-27T12:47:45;12.50;99.90
1359;DHT22;673;48.098;14.422;2022-09-27T12:50:26;12.50;99.90
1359;DHT22;673;48.098;14.422;2022-09-27T12:52:59;12.50;99.90
1359;DHT22;673;48.098;14.422;2022-09-27T12:55:54;12.70;99.90
1359;DHT22;673;48.098;14.422;2022-09-27T12:59:02;12.70;99.90
1359;DHT22;673;48.098;14.422;2022-09-27T13:01:54;12.90;99.90
1359;DHT22;673;48.098;14.422;2022-09-27T13:07:36;12.80;99.90
1359;DHT22;673;48.098;14.422;2022-09-27T13:10:25;12.80;99.90
1359;DHT22;673;48.098;14.422;2022-09-27T13:12:58;12.90;99.90
1359;DHT22;673;48.098;14.422;2022-09-27T13:15:30;13.00;99.90
1359;DHT22;673;48.098;14.422;2022-09-27T13:17:59;13.20;99.90
1359;DHT22;673;48.098;14.422;2022-09-27T13:20:40;13.30;99.90
1359;DHT22;673;48.098;14.422;2022-09-27T13:26:43;13.30;99.90
1359;DHT22;673;48.098;14.422;2022-09-27T13:29:26;13.20;99.90
1359;DHT22;673;48.098;14.422;2022-09-27T13:32:17;13.20;99.90
1359;DHT22;673;48.098;14.422;2022-09-27T13:34:47;13.20;99.90
1359;DHT22;673;48.098;14.422;2022-09-27T13:37:36;13.40;99.90
1359;DHT22;673;48.098;14.422;2022-09-27T13:40:24;13.30;99.90
1359;DHT22;673;48.098;14.422;2022-09-27T13:43:18;13.60;99.90
1359;DHT22;673;48.098;14.422;2022-09-27T13:45:53;13.70;99.90
1359;DHT22;673;48.098;14.422;2022-09-27T13:48:26;13.60;99.90
1359;DHT22;673;48.098;14.422;2022-09-27T13:51:00;13.40;99.90
1359;DHT22;673;48.098;14.422;2022-09-27T13:53:30;13.40;99.90
1359;DHT22;673;48.098;14.422;2022-09-27T13:55:59;13.40;99.90
1359;DHT22;673;48.098;14.422;2022-09-27T13:58:43;13.30;99.90
1359;DHT22;673;48.098;14.422;2022-09-27T14:01:18;13.20;99.90
1359;DHT22;673;48.098;14.422;2022-09-27T14:03:47;12.90;99.90
1359;DHT22;673;48.098;14.422;2022-09-27T14:06:19;12.90;99.90
1359;DHT22;673;48.098;14.422;2022-09-27T14:08:49;12.90;99.90
1359;DHT22;673;48.098;14.422;2022-09-27T14:11:22;12.70;99.90
1359;DHT22;673;48.098;14.422;2022-09-27T14:13:51;12.70;99.90
1359;DHT22;673;48.098;14.422;2022-09-27T14:16:19;12.60;99.90
1359;DHT22;673;48.098;14.422;2022-09-27T14:18:50;12.60;99.90
1359;DHT22;673;48.098;14.422;2022-09-27T14:21:29;12.50;99.90
1359;DHT22;673;48.098;14.422;2022-09-27T14:24:26;12.50;99.90
1359;DHT22;673;48.098;14.422;2022-09-27T14:27:06;12.50;99.90
1359;DHT22;673;48.098;14.422;2022-09-27T14:29:39;12.40;99.90
1359;DHT22;673;48.098;14.422;2022-09-27T14:32:11;12.30;99.90
1359;DHT22;673;48.098;14.422;2022-09-27T14:34:39;12.30;99.90
1359;DHT22;673;48.098;14.422;2022-09-27T14:37:18;12.30;99.90
1359;DHT22;673;48.098;14.422;2022-09-27T14:40:00;12.20;99.90
1359;DHT22;673;48.098;14.422;2022-09-27T14:42:31;12.20;99.90
1359;DHT22;673;48.098;14.422;2022-09-27T14:45:05;12.20;99.90
1359;DHT22;673;48.098;14.422;2022-09-27T14:47:44;12.10;99.90
1359;DHT22;673;48.098;14.422;2022-09-27T14:50:18;12.10;99.90
1359;DHT22;673;48.098;14.422;2022-09-27T14:52:46;12.20;99.90
1359;DHT22;673;48.098;14.422;2022-09-27T14:55:16;12.30;99.90
1359;DHT22;673;48.098;14.422;2022-09-27T14:57:49;12.30;99.90
1359;DHT22;673;48.098;14.422;2022-09-27T15:00:19;12.60;99.90
1359;DHT22;673;48.098;14.422;2022-09-27T15:02:47;12.70;99.90
1359;DHT22;673;48.098;14.422;2022-09-27T15:05:19;12.80;99.90
1359;DHT22;673;48.098;14.422;2022-09-27T15:07:47;12.90;99.90
1359;DHT22;673;48.098;14.422;2022-09-27T15:10:15;13.00;99.90
1359;DHT22;673;48.098;14.422;2022-09-27T15:12:45;12.90;99.90
1359;DHT22;673;48.098;14.422;2022-09-27T15:15:16;12.90;99.90
1359;DHT22;673;48.098;14.422;2022-09-27T15:17:45;12.90;99.90
1359;DHT22;673;48.098;14.422;2022-09-27T15:20:21;12.90;99.90
1359;DHT22;673;48.098;14.422;2022-09-27T15:22:49;12.70;99.90
1359;DHT22;673;48.098;14.422;2022-09-27T15:25:23;12.50;99.90
1359;DHT22;673;48.098;14.422;2022-09-27T15:27:58;12.20;99.90
1359;DHT22;673;48.098;14.422;2022-09-27T15:30:28;12.20;99.90
1359;DHT22;673;48.098;14.422;2022-09-27T15:32:59;12.20;99.90
1359;DHT22;673;48.098;14.422;2022-09-27T15:35:29;12.30;99.90
1359;DHT22;673;48.098;14.422;2022-09-27T15:38:23;12.30;99.90
1359;DHT22;673;48.098;14.422;2022-09-27T15:40:58;12.30;99.90
1359;DHT22;673;48.098;14.422;2022-09-27T15:43:30;12.20;99.90
1359;DHT22;673;48.098;14.422;2022-09-27T15:45:59;12.10;99.90
1359;DHT22;673;48.098;14.422;2022-09-27T15:48:29;12.00;99.90
1359;DHT22;673;48.098;14.422;2022-09-27T15:50:58;12.00;99.90
1359;DHT22;673;48.098;14.422;2022-09-27T15:53:43;11.90;99.90
1359;DHT22;673;48.098;14.422;2022-09-27T15:56:13;11.80;99.90
1359;DHT22;673;48.098;14.422;2022-09-27T15:58:41;11.60;99.90
1359;DHT22;673;48.098;14.422;2022-09-27T16:01:18;11.60;99.90
1359;DHT22;673;48.098;14.422;2022-09-27T16:03:47;11.40;99.90
1359;DHT22;673;48.098;14.422;2022-09-27T16:06:16;11.30;99.90
1359;DHT22;673;48.098;14.422;2022-09-27T16:08:44;11.30;99.90
1359;DHT22;673;48.098;14.422;2022-09-27T16:11:13;11.20;99.90
1359;DHT22;673;48.098;14.422;2022-09-27T16:13:41;11.10;99.90
1359;DHT22;673;48.098;14.422;2022-09-27T16:16:15;11.00;99.90
1359;DHT22;673;48.098;14.422;2022-09-27T16:18:43;11.00;99.90
1359;DHT22;673;48.098;14.422;2022-09-27T16:21:11;11.00;99.90
1359;DHT22;673;48.098;14.422;2022-09-27T16:23:39;10.90;99.90
1359;DHT22;673;48.098;14.422;2022-09-27T16:26:06;10.80;99.90
1359;DHT22;673;48.098;14.422;2022-09-27T16:28:33;10.70;99.90
1359;DHT22;673;48.098;14.422;2022-09-27T16:31:02;10.50;99.90
1359;DHT22;673;48.098;14.422;2022-09-27T16:33:30;10.30;99.90
1359;DHT22;673;48.098;14.422;2022-09-27T16:35:58;10.10;99.90
1359;DHT22;673;48.098;14.422;2022-09-27T16:38:27;10.10;99.90
1359;DHT22;673;48.098;14.422;2022-09-27T16:41:00;9.90;99.90
1359;DHT22;673;48.098;14.422;2022-09-27T16:43:27;9.80;99.90
1359;DHT22;673;48.098;14.422;2022-09-27T16:46:03;9.70;99.90
1359;DHT22;673;48.098;14.422;2022-09-27T16:48:32;9.60;99.90
1359;DHT22;673;48.098;14.422;2022-09-27T16:51:04;9.50;99.90
1359;DHT22;673;48.098;14.422;2022-09-27T16:53:48;9.40;99.90
1359;DHT22;673;48.098;14.422;2022-09-27T16:56:17;9.40;99.90